sensor_id;sensor_type;location;lat;lon;timestamp;pressure;altitude;pressure_sealevel;temperature;humidity
74435;BME280;62867;52.038;29.256;2022-12-15T16:19:24;1016.8;;;-1.5;67.3
74435;BME280;62867;52.038;29.256;2022-12-15T16:24:24;1018.1;;;2.6;71.8
74435;BME280;62867;52.038;29.256;2022-12-15T16:29:24;1018.2;;;2.5;71.3
74435;BME280;62867;52.038;29.256;2022-12-15T16:34:34;1018.3;;;2.4;70.4
74435;BME280;62867;52.038;29.256;2022-12-15T16:39:25;1018.4;;;2.3;69.8
74435;BME280;62867;52.038;29.256;2022-12-15T16:44:44;1018.4;;;2.3;69.8
74435;BME280;62867;52.038;29.256;2022-12-15T16:49:34;1018.4;;;2.2;69.6
74435;BME280;62867;52.038;29.256;2022-12-15T16:54:25;1018.5;;;2.2;69.8
74435;BME280;62867;52.038;29.256;2022-12-15T16:59:44;1018.6;;;2.2;70.2
74435;BME280;62867;52.038;29.256;2022-12-15T17:04:44;1018.6;;;2.1;70
74435;BME280;62867;52.038;29.256;2022-12-15T17:09:56;1018.7;;;2.1;70.1
74435;BME280;62867;52.038;29.256;2022-12-15T17:14:24;1018.8;;;2.1;70.4
74435;BME280;62867;52.038;29.256;2022-12-15T17:19:34;1018.8;;;2.1;70.4
74435;BME280;62867;52.038;29.256;2022-12-15T17:24:36;1018.8;;;2;70
74435;BME280;62867;52.038;29.256;2022-12-15T17:29:24;1018.8;;;2;69.8
74435;BME280;62867;52.038;29.256;2022-12-15T17:34:35;1018.9;;;2;69.5
74435;BME280;62867;52.038;29.256;2022-12-15T17:39:54;1019;;;2;69.6
74435;BME280;62867;52.038;29.256;2022-12-15T17:44:25;1019;;;2;69.6
74435;BME280;62867;52.038;29.256;2022-12-15T17:49:34;1019.1;;;2.1;69.6
74435;BME280;62867;52.038;29.256;2022-12-15T17:54:34;1019.1;;;2.1;70
74435;BME280;62867;52.038;29.256;2022-12-15T17:59:34;1019.1;;;2.1;69.9
74435;BME280;62867;52.038;29.256;2022-12-15T18:04:36;1019.2;;;2.1;69.7
74435;BME280;62867;52.038;29.256;2022-12-15T18:09:47;1019.2;;;2.1;69.9
74435;BME280;62867;52.038;29.256;2022-12-15T18:14:32;1019.3;;;2.1;69.4
74435;BME280;62867;52.038;29.256;2022-12-15T18:19:24;1019.4;;;2;69.5
74435;BME280;62867;52.038;29.256;2022-12-15T18:24:26;1019.4;;;2;69.2
74435;BME280;62867;52.038;29.256;2022-12-15T18:29:46;1019.5;;;1.9;68.7
74435;BME280;62867;52.038;29.256;2022-12-15T18:34:24;1019.6;;;1.9;68.1
74435;BME280;62867;52.038;29.256;2022-12-15T18:39:26;1019.8;;;1.8;67.8
74435;BME280;62867;52.038;29.256;2022-12-15T18:44:44;1019.9;;;1.7;67.4
74435;BME280;62867;52.038;29.256;2022-12-15T18:49:26;1020.1;;;1.7;67.8
74435;BME280;62867;52.038;29.256;2022-12-15T18:54:36;1020.2;;;1.7;67.4
74435;BME280;62867;52.038;29.256;2022-12-15T18:59:24;1020.2;;;1.7;66.8
74435;BME280;62867;52.038;29.256;2022-12-15T19:04:24;1020.3;;;1.7;66.9
74435;BME280;62867;52.038;29.256;2022-12-15T19:09:47;1020.3;;;1.6;66.5
74435;BME280;62867;52.038;29.256;2022-12-15T19:14:37;1020.4;;;1.6;66.4
74435;BME280;62867;52.038;29.256;2022-12-15T19:19:26;1020.4;;;1.6;66.3
74435;BME280;62867;52.038;29.256;2022-12-15T19:24:25;1020.6;;;1.6;65.6
74435;BME280;62867;52.038;29.256;2022-12-15T19:29:37;1020.6;;;1.5;65.2
74435;BME280;62867;52.038;29.256;2022-12-15T19:34:26;1020.6;;;1.5;64.5
74435;BME280;62867;52.038;29.256;2022-12-15T19:39:36;1020.7;;;1.4;64.6
74435;BME280;62867;52.038;29.256;2022-12-15T19:44:27;1020.8;;;1.3;64.1
74435;BME280;62867;52.038;29.256;2022-12-15T19:49:48;1020.8;;;1.2;64.5
74435;BME280;62867;52.038;29.256;2022-12-15T19:54:45;1020.9;;;1.2;64.4
74435;BME280;62867;52.038;29.256;2022-12-15T19:59:59;1021;;;1.3;64.5
74435;BME280;62867;52.038;29.256;2022-12-15T20:04:24;1021.2;;;1.3;64.3
74435;BME280;62867;52.038;29.256;2022-12-15T20:09:24;1021.2;;;1.3;64.2
74435;BME280;62867;52.038;29.256;2022-12-15T20:14:45;1021.3;;;1.2;63.8
74435;BME280;62867;52.038;29.256;2022-12-15T20:19:24;1021.3;;;1.3;64.2
74435;BME280;62867;52.038;29.256;2022-12-15T20:24:36;1021.3;;;1.3;64.1
74435;BME280;62867;52.038;29.256;2022-12-15T20:29:36;1021.4;;;1.3;63.8
74435;BME280;62867;52.038;29.256;2022-12-15T20:34:39;1021.4;;;1.3;63.7
74435;BME280;62867;52.038;29.256;2022-12-15T20:39:27;1021.6;;;1.2;63.8
74435;BME280;62867;52.038;29.256;2022-12-15T20:44:27;1021.6;;;1.2;63.7
74435;BME280;62867;52.038;29.256;2022-12-15T20:49:38;1021.8;;;1.1;63.2
74435;BME280;62867;52.038;29.256;2022-12-15T20:54:26;1021.9;;;1.1;63.9
74435;BME280;62867;52.038;29.256;2022-12-15T20:59:45;1021.9;;;1.1;64.3
74435;BME280;62867;52.038;29.256;2022-12-15T21:04:47;1022;;;1.1;64.1
74435;BME280;62867;52.038;29.256;2022-12-15T21:09:47;1022;;;1.1;63.9
74435;BME280;62867;52.038;29.256;2022-12-15T21:14:37;1022.1;;;1.1;64.2
74435;BME280;62867;52.038;29.256;2022-12-15T21:19:27;1022.2;;;1.1;64.4
74435;BME280;62867;52.038;29.256;2022-12-15T21:24:39;1022.2;;;1.1;64.1
74435;BME280;62867;52.038;29.256;2022-12-15T21:29:27;1022.3;;;1.1;63.4
74435;BME280;62867;52.038;29.256;2022-12-15T21:34:27;1022.3;;;1;64
74435;BME280;62867;52.038;29.256;2022-12-15T21:39:47;1022.3;;;1.1;63.9
74435;BME280;62867;52.038;29.256;2022-12-15T21:44:35;1022.3;;;1.1;63.5
74435;BME280;62867;52.038;29.256;2022-12-15T21:49:25;1022.4;;;1;63.3
74435;BME280;62867;52.038;29.256;2022-12-15T21:54:47;1022.4;;;1;63.6
74435;BME280;62867;52.038;29.256;2022-12-15T21:59:33;1022.5;;;1;64.4
74435;BME280;62867;52.038;29.256;2022-12-15T22:04:24;1022.6;;;1.1;64.4
74435;BME280;62867;52.038;29.256;2022-12-15T22:09:21;1022.6;;;1.1;64.3
74435;BME280;62867;52.038;29.256;2022-12-15T22:14:45;1022.7;;;1;64.3
74435;BME280;62867;52.038;29.256;2022-12-15T22:19:23;1022.8;;;1;64.7
74435;BME280;62867;52.038;29.256;2022-12-15T22:24:33;1022.8;;;1;64.4
74435;BME280;62867;52.038;29.256;2022-12-15T22:29:21;1022.8;;;1;64.7
74435;BME280;62867;52.038;29.256;2022-12-15T22:34:21;1023;;;1;64.5
74435;BME280;62867;52.038;29.256;2022-12-15T22:39:21;1023;;;0.9;64.4
74435;BME280;62867;52.038;29.256;2022-12-15T22:44:33;1023.1;;;0.9;64.8
74435;BME280;62867;52.038;29.256;2022-12-15T22:49:23;1023.1;;;0.9;63.9
74435;BME280;62867;52.038;29.256;2022-12-15T22:54:55;1023.3;;;0.9;64
74435;BME280;62867;52.038;29.256;2022-12-15T22:59:33;1023.3;;;0.9;64.1
74435;BME280;62867;52.038;29.256;2022-12-15T23:04:23;1023.3;;;0.9;65
74435;BME280;62867;52.038;29.256;2022-12-15T23:09:21;1023.4;;;0.9;64.8
74435;BME280;62867;52.038;29.256;2022-12-15T23:14:31;1023.4;;;1;64.9
74435;BME280;62867;52.038;29.256;2022-12-15T23:19:33;1023.4;;;1;64.5
74435;BME280;62867;52.038;29.256;2022-12-15T23:24:45;1023.5;;;1;64.3
74435;BME280;62867;52.038;29.256;2022-12-15T23:29:33;1023.5;;;0.9;63.6
74435;BME280;62867;52.038;29.256;2022-12-15T23:34:57;1023.6;;;0.8;64.1
74435;BME280;62867;52.038;29.256;2022-12-15T23:39:53;1023.8;;;0.8;64.3
74435;BME280;62867;52.038;29.256;2022-12-15T23:44:31;1023.8;;;0.8;64.5
74435;BME280;62867;52.038;29.256;2022-12-15T23:49:21;1023.9;;;0.8;64.1
74435;BME280;62867;52.038;29.256;2022-12-15T23:54:35;1023.8;;;0.8;64.1
74435;BME280;62867;52.038;29.256;2022-12-15T23:59:33;1023.8;;;0.8;64.4
